createdAt,value
2024-02-26T00:00:42.137Z,94689.97
2024-02-26T00:03:09.049Z,94684.69
2024-02-26T00:05:36.171Z,94689.19
2024-02-26T00:08:05.600Z,94686.00
2024-02-26T00:10:32.803Z,94684.44
2024-02-26T00:12:59.512Z,94677.84
2024-02-26T00:15:26.334Z,94679.16
2024-02-26T00:17:53.279Z,94680.75
2024-02-26T00:20:20.180Z,94671.75
2024-02-26T00:22:47.094Z,94673.63
2024-02-26T00:25:14.014Z,94674.91
2024-02-26T00:27:42.796Z,94670.44
2024-02-26T00:30:10.366Z,94663.84
2024-02-26T00:32:37.318Z,94662.25
2024-02-26T00:35:04.291Z,94668.84
2024-02-26T00:37:31.058Z,94668.06
2024-02-26T00:39:57.820Z,94658.56
2024-02-26T00:42:24.652Z,94657.50
2024-02-26T00:44:51.412Z,94650.91
2024-02-26T00:47:18.188Z,94647.75
2024-02-26T00:49:45.051Z,94646.94
2024-02-26T00:52:11.928Z,94645.38
2024-02-26T00:54:38.608Z,94646.97
2024-02-26T00:57:05.328Z,94644.31
2024-02-26T00:59:32.047Z,94638.00
2024-02-26T01:01:59.926Z,94639.28
2024-02-26T01:04:26.653Z,94635.84
2024-02-26T01:06:53.519Z,94631.06
2024-02-26T01:09:20.442Z,94633.44
2024-02-26T01:11:48.233Z,94633.19
2024-02-26T01:14:15.947Z,94626.31
2024-02-26T01:16:42.665Z,94622.63
2024-02-26T01:19:09.623Z,94622.34
2024-02-26T01:21:36.627Z,94615.22
2024-02-26T01:24:03.416Z,94612.59
2024-02-26T01:26:30.170Z,94628.44
2024-02-26T01:28:56.925Z,94611.00
2024-02-26T01:31:23.696Z,94608.91
2024-02-26T01:33:50.773Z,94604.66
2024-02-26T01:36:17.744Z,94605.78
2024-02-26T01:38:44.626Z,94599.97
2024-02-26T01:41:11.610Z,94602.09
2024-02-26T01:43:38.278Z,94603.13
2024-02-26T01:46:05.621Z,94596.00
2024-02-26T01:48:32.687Z,94603.13
2024-02-26T01:50:59.788Z,94599.44
2024-02-26T01:53:26.583Z,94601.56
2024-02-26T01:55:53.373Z,94594.69
2024-02-26T01:58:20.291Z,94601.56
2024-02-26T02:00:47.636Z,94600.50
2024-02-26T02:03:14.449Z,94601.81
2024-02-26T02:05:43.496Z,94598.66
2024-02-26T02:08:15.396Z,94599.44
2024-02-26T02:10:45.012Z,94593.13
2024-02-26T02:13:11.771Z,94598.16
2024-02-26T02:15:38.499Z,94597.88
2024-02-26T02:18:05.702Z,94598.41
2024-02-26T02:20:35.899Z,94598.66
2024-02-26T02:23:03.751Z,94604.44
2024-02-26T02:25:30.526Z,94604.16
2024-02-26T02:27:58.054Z,94610.25
2024-02-26T02:30:28.017Z,94606.00
2024-02-26T02:32:54.943Z,94607.88
2024-02-26T02:35:21.675Z,94602.06
2024-02-26T02:37:48.730Z,94605.22
2024-02-26T02:40:15.592Z,94605.78
2024-02-26T02:42:42.312Z,94604.19
2024-02-26T02:45:09.496Z,94594.69
2024-02-26T02:47:39.170Z,94598.41
2024-02-26T02:50:06.615Z,94603.16
2024-02-26T02:52:33.344Z,94591.00
2024-02-26T02:55:00.186Z,94587.84
2024-02-26T02:57:26.979Z,94589.16
2024-02-26T02:59:53.716Z,94591.00
2024-02-26T03:02:20.469Z,94601.31
2024-02-26T03:04:47.707Z,94594.97
2024-02-26T03:07:14.557Z,94597.88
2024-02-26T03:09:42.241Z,94586.53
2024-02-26T03:12:09.304Z,94591.28
2024-02-26T03:14:36.037Z,94590.50
2024-02-26T03:17:02.783Z,94592.88
2024-02-26T03:19:29.502Z,94585.19
2024-02-26T03:21:56.231Z,94583.59
2024-02-26T03:24:23.087Z,94587.31
2024-02-26T03:26:49.847Z,94595.22
2024-02-26T03:29:16.560Z,94596.81
2024-02-26T03:31:43.267Z,94594.72
2024-02-26T03:34:10.302Z,94601.31
2024-02-26T03:36:37.137Z,94588.91
2024-02-26T03:39:08.731Z,94584.41
2024-02-26T03:41:36.242Z,94593.13
2024-02-26T03:44:03.388Z,94582.81
2024-02-26T03:46:30.194Z,94579.91
2024-02-26T03:48:57.080Z,94573.06
2024-02-26T03:51:24.146Z,94573.31
2024-02-26T03:53:51.113Z,94575.41
2024-02-26T03:56:17.858Z,94571.47
2024-02-26T03:58:44.760Z,94573.56
2024-02-26T04:01:11.588Z,94576.22
2024-02-26T04:03:38.369Z,94582.28
2024-02-26T04:06:05.602Z,94583.84
2024-02-26T04:08:32.497Z,94590.47
2024-02-26T04:10:59.226Z,94583.06
2024-02-26T04:13:27.209Z,94593.66
2024-02-26T04:15:54.001Z,94589.44
2024-02-26T04:18:20.819Z,94589.97
2024-02-26T04:20:47.586Z,94586.25
2024-02-26T04:23:14.266Z,94597.84
2024-02-26T04:25:41.026Z,94603.16
2024-02-26T04:28:07.720Z,94603.66
2024-02-26T04:30:34.515Z,94601.03
2024-02-26T04:33:01.346Z,94610.78
2024-02-26T04:35:28.136Z,94613.16
2024-02-26T04:37:54.896Z,94613.94
2024-02-26T04:40:21.613Z,94619.97
2024-02-26T04:42:51.030Z,94612.59
2024-02-26T04:45:17.703Z,94612.75
2024-02-26T04:47:44.659Z,94615.91
2024-02-26T04:50:11.606Z,94613.56
2024-02-26T04:52:38.517Z,94615.69
2024-02-26T04:55:05.434Z,94613.31
2024-02-26T04:57:32.153Z,94614.63
2024-02-26T04:59:58.896Z,94612.25
2024-02-26T05:02:25.730Z,94618.84
2024-02-26T05:04:52.464Z,94610.16
2024-02-26T05:07:19.317Z,94614.09
2024-02-26T05:09:46.097Z,94612.00
2024-02-26T05:12:12.947Z,94613.59
2024-02-26T05:14:40.593Z,94614.34
2024-02-26T05:17:07.284Z,94611.41
2024-02-26T05:19:34.018Z,94611.66
2024-02-26T05:22:00.803Z,94606.97
2024-02-26T05:24:27.558Z,94612.75
2024-02-26T05:26:56.083Z,94616.72
2024-02-26T05:29:22.775Z,94614.03
2024-02-26T05:31:49.450Z,94615.13
2024-02-26T05:34:16.236Z,94609.34
2024-02-26T05:36:42.951Z,94608.81
2024-02-26T05:39:15.760Z,94615.66
2024-02-26T05:41:44.592Z,94612.75
2024-02-26T05:44:12.797Z,94618.53
2024-02-26T05:46:39.584Z,94617.75
2024-02-26T05:49:06.329Z,94614.59
2024-02-26T05:51:33.149Z,94620.38
2024-02-26T05:53:59.988Z,94623.00
2024-02-26T05:56:26.701Z,94614.25
2024-02-26T05:58:54.094Z,94625.00
2024-02-26T06:01:22.170Z,94625.78
2024-02-26T06:03:49.052Z,94623.97
2024-02-26T06:06:16.742Z,94626.09
2024-02-26T06:08:43.818Z,94629.78
2024-02-26T06:11:10.702Z,94636.63
2024-02-26T06:13:37.788Z,94641.91
2024-02-26T06:16:04.865Z,94639.22
2024-02-26T06:18:31.947Z,94631.88
2024-02-26T06:20:58.893Z,94633.25
2024-02-26T06:23:25.674Z,94638.00
2024-02-26T06:25:52.443Z,94635.91
2024-02-26T06:28:19.460Z,94640.44
2024-02-26T06:30:47.408Z,94626.75
2024-02-26T06:33:15.587Z,94637.84
2024-02-26T06:35:43.198Z,94647.88
2024-02-26T06:38:10.608Z,94633.16
2024-02-26T06:40:37.520Z,94643.75
2024-02-26T06:43:04.639Z,94645.84
2024-02-26T06:45:31.554Z,94642.16
2024-02-26T06:47:58.477Z,94646.66
2024-02-26T06:50:25.275Z,94644.03
2024-02-26T06:52:51.977Z,94640.59
2024-02-26T06:55:18.671Z,94648.28
2024-02-26T06:57:45.405Z,94648.28
2024-02-26T07:00:16.078Z,94654.88
2024-02-26T07:02:43.458Z,94658.59
2024-02-26T07:05:10.580Z,94660.69
2024-02-26T07:07:37.405Z,94663.31
2024-02-26T07:10:04.914Z,94657.78
2024-02-26T07:12:31.880Z,94661.47
2024-02-26T07:14:59.580Z,94648.50
2024-02-26T07:17:26.439Z,94654.03
2024-02-26T07:19:53.197Z,94655.34
2024-02-26T07:22:20.116Z,94653.69
2024-02-26T07:24:46.934Z,94653.59
2024-02-26T07:27:13.665Z,94655.41
2024-02-26T07:29:40.473Z,94642.41
2024-02-26T07:32:07.445Z,94651.78
2024-02-26T07:34:34.323Z,94650.00
2024-02-26T07:37:01.141Z,94662.25
2024-02-26T07:39:27.869Z,94664.22
2024-02-26T07:41:54.946Z,94662.00
2024-02-26T07:44:21.885Z,94661.72
2024-02-26T07:46:48.649Z,94660.53
2024-02-26T07:49:15.719Z,94665.13
2024-02-26T07:51:42.796Z,94668.72
2024-02-26T07:54:09.675Z,94671.38
2024-02-26T07:56:36.479Z,94679.34
2024-02-26T07:59:03.311Z,94674.25
2024-02-26T08:01:30.078Z,94666.47
2024-02-26T08:03:57.298Z,94673.44
2024-02-26T08:06:25.751Z,94670.78
2024-02-26T08:08:52.768Z,94673.16
2024-02-26T08:11:19.753Z,94668.13
2024-02-26T08:13:46.528Z,94665.81
2024-02-26T08:16:13.588Z,94668.72
2024-02-26T08:18:41.245Z,94669.03
2024-02-26T08:21:08.375Z,94662.28
2024-02-26T08:23:35.133Z,94654.69
2024-02-26T08:26:01.932Z,94653.88
2024-02-26T08:28:28.638Z,94664.25
2024-02-26T08:30:55.349Z,94653.53
2024-02-26T08:33:22.229Z,94650.84
2024-02-26T08:35:49.099Z,94667.56
2024-02-26T08:38:15.872Z,94668.56
2024-02-26T08:40:43.023Z,94664.25
2024-02-26T08:43:10.921Z,94666.66
2024-02-26T08:45:38.444Z,94667.13
2024-02-26T08:48:05.586Z,94664.50
2024-02-26T08:50:32.409Z,94661.97
2024-02-26T08:52:59.153Z,94663.78
2024-02-26T08:55:25.825Z,94668.16
2024-02-26T08:57:52.887Z,94669.00
2024-02-26T09:00:21.818Z,94671.75
2024-02-26T09:02:50.020Z,94670.09
2024-02-26T09:05:17.070Z,94669.56
2024-02-26T09:07:43.877Z,94673.69
2024-02-26T09:10:11.715Z,94676.22
2024-02-26T09:12:40.909Z,94665.19
2024-02-26T09:15:08.918Z,94675.75
2024-02-26T09:17:35.906Z,94683.50
2024-02-26T09:20:04.137Z,94685.19
2024-02-26T09:22:30.931Z,94690.59
2024-02-26T09:24:57.706Z,94678.09
2024-02-26T09:27:24.969Z,94675.00
2024-02-26T09:29:51.825Z,94680.78
2024-02-26T09:32:19.100Z,94664.53
2024-02-26T09:34:45.973Z,94676.19
2024-02-26T09:37:21.192Z,94674.28
2024-02-26T09:39:49.312Z,94676.50
2024-02-26T09:42:20.451Z,94682.47
2024-02-26T09:44:52.337Z,94674.59
2024-02-26T09:47:21.221Z,94673.78
2024-02-26T09:49:49.878Z,94670.41
2024-02-26T09:52:18.001Z,94662.19
2024-02-26T09:54:48.712Z,94666.34
2024-02-26T09:57:18.575Z,94667.44
2024-02-26T09:59:47.617Z,94659.81
2024-02-26T10:02:15.635Z,94665.47
2024-02-26T10:04:46.782Z,94670.66
2024-02-26T10:07:16.583Z,94671.19
2024-02-26T10:09:43.351Z,94675.03
2024-02-26T10:12:12.978Z,94675.44
2024-02-26T10:14:40.018Z,94674.72
2024-02-26T10:17:11.912Z,94678.69
2024-02-26T10:19:39.592Z,94684.78
2024-02-26T10:22:07.176Z,94665.69
2024-02-26T10:24:35.985Z,94661.63
2024-02-26T10:27:03.780Z,94655.50
2024-02-26T10:29:30.934Z,94657.13
2024-02-26T10:31:57.781Z,94669.56
2024-02-26T10:34:25.024Z,94666.50
2024-02-26T10:36:54.090Z,94681.31
2024-02-26T10:39:22.331Z,94676.13
2024-02-26T10:41:49.483Z,94677.53
2024-02-26T10:44:18.737Z,94671.59
2024-02-26T10:46:48.645Z,94684.66
2024-02-26T10:49:19.474Z,94672.19
2024-02-26T10:51:51.275Z,94667.00
2024-02-26T10:54:18.098Z,94676.75
2024-02-26T10:56:47.564Z,94669.44
2024-02-26T10:59:21.874Z,94664.81
2024-02-26T11:01:52.115Z,94666.25
2024-02-26T11:04:20.082Z,94666.97
2024-02-26T11:06:48.907Z,94658.81
2024-02-26T11:09:20.689Z,94655.13
2024-02-26T11:11:48.550Z,94661.44
2024-02-26T11:14:15.756Z,94660.28
2024-02-26T11:16:44.340Z,94656.28
2024-02-26T11:19:13.969Z,94655.88
2024-02-26T11:21:42.964Z,94659.91
2024-02-26T11:24:13.671Z,94644.91
2024-02-26T11:26:49.332Z,94651.31
2024-02-26T11:29:21.867Z,94644.41
2024-02-26T11:31:49.372Z,94645.47
2024-02-26T11:34:16.358Z,94644.72
2024-02-26T11:36:43.593Z,94648.34
2024-02-26T11:39:13.875Z,94645.22
2024-02-26T11:41:40.720Z,94645.50
2024-02-26T11:44:08.437Z,94644.41
2024-02-26T11:46:41.290Z,94640.63
2024-02-26T11:49:29.841Z,94642.38
2024-02-26T11:51:57.808Z,94632.47
2024-02-26T11:54:58.355Z,94636.34
2024-02-26T11:57:37.649Z,94628.94
2024-02-26T12:00:07.156Z,94632.28
2024-02-26T12:02:46.595Z,94636.13
2024-02-26T12:05:13.515Z,94630.44
2024-02-26T12:07:54.097Z,94635.47
2024-02-26T12:10:35.461Z,94634.81
2024-02-26T12:13:08.855Z,94633.91
2024-02-26T12:15:38.969Z,94626.84
2024-02-26T12:18:08.950Z,94630.91
2024-02-26T12:20:36.421Z,94631.34
2024-02-26T12:23:05.485Z,94628.31
2024-02-26T12:25:33.920Z,94624.75
2024-02-26T12:28:01.413Z,94624.28
2024-02-26T12:30:30.727Z,94620.56
2024-02-26T12:32:58.648Z,94629.63
2024-02-26T12:35:26.130Z,94630.50
2024-02-26T12:37:54.806Z,94635.09
2024-02-26T12:40:22.068Z,94633.66
2024-02-26T12:42:49.565Z,94622.94
2024-02-26T12:45:17.787Z,94625.38
2024-02-26T12:47:46.981Z,94622.25
2024-02-26T12:50:14.187Z,94620.66
2024-02-26T12:52:42.186Z,94620.63
2024-02-26T12:55:12.234Z,94619.16
2024-02-26T12:57:40.049Z,94622.16
2024-02-26T13:00:10.727Z,94620.56
2024-02-26T13:02:38.777Z,94620.31
2024-02-26T13:05:08.690Z,94630.47
2024-02-26T13:07:41.586Z,94634.63
2024-02-26T13:10:09.173Z,94628.50
2024-02-26T13:12:35.947Z,94633.41
2024-02-26T13:15:04.253Z,94638.16
2024-02-26T13:17:34.395Z,94637.63
2024-02-26T13:20:01.392Z,94637.97
2024-02-26T13:22:28.027Z,94626.19
2024-02-26T13:24:56.315Z,94632.91
2024-02-26T13:27:25.978Z,94626.53
2024-02-26T13:30:12.467Z,94637.63
2024-02-26T13:32:41.009Z,94639.03
2024-02-26T13:35:12.743Z,94639.75
2024-02-26T13:37:40.590Z,94644.13
2024-02-26T13:40:11.656Z,94650.25
2024-02-26T13:42:39.639Z,94646.94
2024-02-26T13:45:10.167Z,94646.44
2024-02-26T13:47:37.342Z,94630.66
2024-02-26T13:50:04.323Z,94627.31
2024-02-26T13:52:33.970Z,94626.66
2024-02-26T13:55:00.934Z,94628.56
2024-02-26T13:57:28.350Z,94627.94
2024-02-26T13:59:55.490Z,94631.25
2024-02-26T14:02:22.487Z,94639.34
2024-02-26T14:04:49.030Z,94633.06
2024-02-26T14:07:18.482Z,94630.72
2024-02-26T14:09:50.319Z,94634.31
2024-02-26T14:12:20.097Z,94629.09
2024-02-26T14:14:50.173Z,94642.19
2024-02-26T14:17:17.144Z,94636.97
2024-02-26T14:19:48.822Z,94642.00
2024-02-26T14:22:18.635Z,94656.00
2024-02-26T14:24:45.416Z,94657.44
2024-02-26T14:27:18.487Z,94664.16
2024-02-26T14:29:45.366Z,94664.94
2024-02-26T14:32:12.089Z,94664.38
2024-02-26T14:34:39.046Z,94663.03
2024-02-26T14:37:05.965Z,94656.50
2024-02-26T14:39:33.806Z,94672.00
2024-02-26T14:42:01.398Z,94666.28
2024-02-26T14:44:28.214Z,94662.66
2024-02-26T14:46:54.897Z,94665.91
2024-02-26T14:49:21.725Z,94670.84
2024-02-26T14:51:48.619Z,94677.59
2024-02-26T14:54:15.653Z,94678.69
2024-02-26T14:56:42.264Z,94689.22
2024-02-26T14:59:08.991Z,94702.56
2024-02-26T15:01:35.778Z,94702.63
2024-02-26T15:04:02.769Z,94698.81
2024-02-26T15:06:29.551Z,94707.81
2024-02-26T15:08:57.298Z,94711.84
2024-02-26T15:11:24.243Z,94707.31
2024-02-26T15:13:50.993Z,94697.03
2024-02-26T15:16:22.028Z,94700.25
2024-02-26T15:18:49.146Z,94704.72
2024-02-26T15:21:16.198Z,94709.53
2024-02-26T15:23:59.155Z,94718.72
2024-02-26T15:26:31.885Z,94727.91
2024-02-26T15:28:58.625Z,94735.41
2024-02-26T15:31:25.340Z,94727.47
2024-02-26T15:33:52.245Z,94719.75
2024-02-26T15:36:19.228Z,94727.09
2024-02-26T15:38:45.895Z,94725.28
2024-02-26T15:41:16.008Z,94721.94
2024-02-26T15:43:42.756Z,94728.03
2024-02-26T15:46:09.636Z,94734.41
2024-02-26T15:48:39.656Z,94737.13
2024-02-26T15:51:06.821Z,94742.56
2024-02-26T15:53:33.608Z,94751.50
2024-02-26T15:56:00.787Z,94748.69
2024-02-26T15:58:27.625Z,94755.16
2024-02-26T16:00:54.388Z,94765.09
2024-02-26T16:03:21.177Z,94766.97
2024-02-26T16:05:48.173Z,94771.41
2024-02-26T16:08:22.009Z,94771.91
2024-02-26T16:10:49.492Z,94783.53
2024-02-26T16:13:20.646Z,94781.00
2024-02-26T16:16:08.988Z,94776.09
2024-02-26T16:18:36.835Z,94783.03
2024-02-26T16:21:03.811Z,94789.50
2024-02-26T16:23:30.545Z,94797.34
2024-02-26T16:25:57.374Z,94791.38
2024-02-26T16:28:26.501Z,94788.22
2024-02-26T16:30:55.272Z,94797.69
2024-02-26T16:33:22.873Z,94801.47
2024-02-26T16:35:49.765Z,94806.03
2024-02-26T16:38:16.547Z,94815.50
2024-02-26T16:40:43.392Z,94806.53
2024-02-26T16:43:10.103Z,94813.28
2024-02-26T16:45:36.975Z,94812.63
2024-02-26T16:48:05.098Z,94810.41
2024-02-26T16:50:31.900Z,94817.19
2024-02-26T16:52:58.997Z,94819.38
2024-02-26T16:55:28.601Z,94812.91
2024-02-26T16:57:57.242Z,94825.00
2024-02-26T17:00:24.267Z,94830.25
2024-02-26T17:02:51.745Z,94828.91
2024-02-26T17:05:18.685Z,94842.09
2024-02-26T17:07:47.012Z,94842.59
2024-02-26T17:10:15.072Z,94841.19
2024-02-26T17:12:42.061Z,94848.31
2024-02-26T17:15:10.109Z,94840.44
2024-02-26T17:17:37.161Z,94840.84
2024-02-26T17:20:05.572Z,94842.19
2024-02-26T17:22:32.444Z,94853.19
2024-02-26T17:24:59.883Z,94850.06
2024-02-26T17:27:27.093Z,94847.59
2024-02-26T17:29:53.781Z,94851.69
2024-02-26T17:32:20.549Z,94850.28
2024-02-26T17:34:49.449Z,94846.13
2024-02-26T17:37:16.843Z,94847.72
2024-02-26T17:39:43.520Z,94850.09
2024-02-26T17:42:10.285Z,94860.94
2024-02-26T17:44:40.852Z,94863.13
2024-02-26T17:47:08.145Z,94877.19
2024-02-26T17:49:35.028Z,94889.53
2024-02-26T17:52:02.912Z,94886.28
2024-02-26T17:54:30.233Z,94887.25
2024-02-26T17:56:58.436Z,94888.81
2024-02-26T17:59:25.574Z,94890.13
2024-02-26T18:01:52.388Z,94891.22
2024-02-26T18:04:19.141Z,94892.81
2024-02-26T18:06:46.448Z,94888.09
2024-02-26T18:09:15.306Z,94883.16
2024-02-26T18:11:45.836Z,94883.44
2024-02-26T18:14:12.597Z,94894.38
2024-02-26T18:16:39.596Z,94889.06
2024-02-26T18:19:06.526Z,94883.72
2024-02-26T18:21:33.466Z,94886.38
2024-02-26T18:24:00.582Z,94889.13
2024-02-26T18:26:27.384Z,94889.13
2024-02-26T18:28:54.092Z,94889.06
2024-02-26T18:31:20.880Z,94894.88
2024-02-26T18:33:47.884Z,94891.41
2024-02-26T18:36:17.348Z,94902.28
2024-02-26T18:38:44.480Z,94903.88
2024-02-26T18:41:20.322Z,94894.00
2024-02-26T18:43:48.625Z,94896.19
2024-02-26T18:46:15.615Z,94909.22
2024-02-26T18:48:43.858Z,94909.00
2024-02-26T18:51:13.202Z,94916.50
2024-02-26T18:53:41.573Z,94925.00
2024-02-26T18:56:08.995Z,94925.00
2024-02-26T18:58:36.034Z,94927.66
2024-02-26T19:01:03.319Z,94912.97
2024-02-26T19:03:33.365Z,94911.66
2024-02-26T19:06:00.394Z,94912.78
2024-02-26T19:08:27.603Z,94918.59
2024-02-26T19:10:54.483Z,94912.38
2024-02-26T19:13:21.257Z,94910.59
2024-02-26T19:15:48.066Z,94918.78
2024-02-26T19:18:14.960Z,94916.94
2024-02-26T19:20:41.936Z,94924.72
2024-02-26T19:23:08.629Z,94918.78
2024-02-26T19:25:35.344Z,94920.84
2024-02-26T19:28:02.053Z,94929.06
2024-02-26T19:30:29.368Z,94921.66
2024-02-26T19:32:56.191Z,94929.91
2024-02-26T19:35:22.982Z,94929.22
2024-02-26T19:37:49.737Z,94931.50
2024-02-26T19:40:16.657Z,94933.47
2024-02-26T19:42:43.506Z,94940.44
2024-02-26T19:45:13.040Z,94947.88
2024-02-26T19:47:41.153Z,94943.72
2024-02-26T19:50:09.353Z,94953.41
2024-02-26T19:52:36.792Z,94952.84
2024-02-26T19:55:04.495Z,94966.66
2024-02-26T19:57:31.717Z,94959.72
2024-02-26T19:59:58.752Z,94964.28
2024-02-26T20:02:25.746Z,94967.41
2024-02-26T20:04:52.584Z,94975.84
2024-02-26T20:07:21.496Z,94971.31
2024-02-26T20:09:48.719Z,94971.91
2024-02-26T20:12:16.090Z,94971.34
2024-02-26T20:14:44.619Z,94972.13
2024-02-26T20:17:11.920Z,94973.72
2024-02-26T20:19:38.705Z,94971.53
2024-02-26T20:22:05.605Z,94969.56
2024-02-26T20:24:32.338Z,94973.50
2024-02-26T20:26:59.082Z,94982.19
2024-02-26T20:29:25.833Z,94979.81
2024-02-26T20:31:52.814Z,94986.75
2024-02-26T20:34:19.818Z,94993.13
2024-02-26T20:36:46.705Z,94992.66
2024-02-26T20:39:13.461Z,94988.66
2024-02-26T20:41:41.944Z,94980.16
2024-02-26T20:44:08.812Z,94986.50
2024-02-26T20:46:35.882Z,94996.56
2024-02-26T20:49:03.627Z,94992.81
2024-02-26T20:51:30.671Z,94999.72
2024-02-26T20:53:58.433Z,94992.50
2024-02-26T20:56:25.186Z,95001.50
2024-02-26T20:58:51.952Z,95009.69
2024-02-26T21:01:18.933Z,94994.16
2024-02-26T21:03:45.789Z,94995.66
2024-02-26T21:06:12.646Z,95000.41
2024-02-26T21:08:39.371Z,95002.78
2024-02-26T21:11:07.187Z,95015.50
2024-02-26T21:13:35.768Z,95010.53
2024-02-26T21:16:02.448Z,95006.09
2024-02-26T21:18:29.432Z,95007.53
2024-02-26T21:20:58.287Z,95011.81
2024-02-26T21:23:25.910Z,95022.50
2024-02-26T21:25:52.666Z,95021.34
2024-02-26T21:28:19.405Z,95028.00
2024-02-26T21:30:46.951Z,95026.31
2024-02-26T21:33:14.409Z,95034.25
2024-02-26T21:35:41.763Z,95034.53
2024-02-26T21:38:10.177Z,95035.31
2024-02-26T21:40:37.253Z,95033.31
2024-02-26T21:43:04.476Z,95038.28
2024-02-26T21:45:31.420Z,95042.72
2024-02-26T21:47:58.337Z,95048.59
2024-02-26T21:50:25.124Z,95041.16
2024-02-26T21:52:51.790Z,95041.47
2024-02-26T21:55:20.506Z,95038.88
2024-02-26T21:57:47.512Z,95036.50
2024-02-26T22:00:15.170Z,95039.72
2024-02-26T22:02:42.543Z,95038.38
2024-02-26T22:05:09.895Z,95040.75
2024-02-26T22:07:36.850Z,95041.53
2024-02-26T22:10:04.938Z,95038.16
2024-02-26T22:12:31.823Z,95035.56
2024-02-26T22:14:58.713Z,95042.47
2024-02-26T22:17:25.455Z,95050.44
2024-02-26T22:19:52.282Z,95048.84
2024-02-26T22:22:19.030Z,95048.81
2024-02-26T22:24:45.749Z,95051.94
2024-02-26T22:27:12.493Z,95050.34
2024-02-26T22:29:39.272Z,95050.94
2024-02-26T22:32:06.053Z,95061.28
2024-02-26T22:34:32.875Z,95058.47
2024-02-26T22:36:59.687Z,95068.03
2024-02-26T22:39:26.675Z,95060.31
2024-02-26T22:41:55.277Z,95061.63
2024-02-26T22:44:22.003Z,95066.53
2024-02-26T22:46:48.670Z,95080.75
2024-02-26T22:49:15.416Z,95075.66
2024-02-26T22:51:42.168Z,95085.13
2024-02-26T22:54:08.943Z,95076.84
2024-02-26T22:56:35.642Z,95093.28
2024-02-26T22:59:05.759Z,95094.38
2024-02-26T23:01:33.600Z,95109.75
2024-02-26T23:04:00.552Z,95111.84
2024-02-26T23:06:27.363Z,95098.28
2024-02-26T23:08:54.107Z,95095.34
2024-02-26T23:11:20.955Z,95095.03
2024-02-26T23:13:48.212Z,95100.59
2024-02-26T23:16:15.220Z,95101.72
2024-02-26T23:18:42.465Z,95103.91
2024-02-26T23:21:09.274Z,95112.69
2024-02-26T23:23:36.516Z,95106.09
2024-02-26T23:26:03.450Z,95115.94
2024-02-26T23:28:30.302Z,95112.00
2024-02-26T23:30:57.334Z,95132.41
2024-02-26T23:33:24.207Z,95131.31
2024-02-26T23:35:51.015Z,95136.13
2024-02-26T23:38:17.701Z,95134.28
2024-02-26T23:40:44.453Z,95139.84
2024-02-26T23:43:12.309Z,95139.09
2024-02-26T23:45:39.433Z,95145.44
2024-02-26T23:48:06.824Z,95154.47
2024-02-26T23:50:35.874Z,95144.88
2024-02-26T23:53:04.992Z,95139.06
2024-02-26T23:55:33.101Z,95149.69
2024-02-26T23:58:00.448Z,95153.38
